Time;durP1;ratioP1;P1;durP2;ratioP2;P2;SDS_P1;SDS_P2;PMS_P1;PMS_P2;Temp;Humidity;BMP_temperature;BMP_pressure;BME280_temperature;BME280_humidity;BME280_pressure;Samples;Min_cycle;Max_cycle;Signal;HPM_P1;HPM_P2
2023/09/14 00:00:16;;;;;;;7.97;7.17;;;;;;;18.07;100.00;156005.53;4956844;28;20623;-84
2023/09/14 00:02:43;;;;;;;7.60;6.50;;;;;;;18.05;100.00;156000.34;4973941;28;20460;-84
2023/09/14 00:05:10;;;;;;;7.80;6.97;;;;;;;18.04;100.00;155999.03;4965884;28;20450;-84
2023/09/14 00:07:38;;;;;;;8.47;6.60;;;;;;;18.05;100.00;156000.34;4976420;28;20489;-84
2023/09/14 00:10:05;;;;;;;8.53;6.43;;;;;;;18.09;100.00;156010.72;4994635;28;20471;-84
2023/09/14 00:12:32;;;;;;;7.40;6.70;;;;;;;18.07;100.00;156005.53;4974174;28;20457;-83
2023/09/14 00:14:58;;;;;;;8.10;7.27;;;;;;;18.11;100.00;156017.25;4966789;28;20457;-83
2023/09/14 00:17:25;;;;;;;7.17;6.30;;;;;;;18.06;100.00;156002.91;4973842;28;20464;-84
2023/09/14 00:19:51;;;;;;;8.13;7.40;;;;;;;18.01;100.00;155991.22;4981197;28;20842;-83
2023/09/14 00:22:18;;;;;;;7.43;6.73;;;;;;;18.01;100.00;155991.22;4970086;28;20460;-84
2023/09/14 00:24:46;;;;;;;8.00;7.20;;;;;;;17.96;100.00;155978.19;4983553;28;20450;-83
2023/09/14 00:27:13;;;;;;;7.43;6.43;;;;;;;17.97;100.00;155980.81;4974794;28;21325;-84
2023/09/14 00:29:39;;;;;;;7.30;6.60;;;;;;;17.94;100.00;155973.00;4971475;28;20450;-84
2023/09/14 00:32:06;;;;;;;7.07;5.93;;;;;;;17.93;100.00;155970.38;4969632;28;20465;-84
2023/09/14 00:34:32;;;;;;;8.17;6.63;;;;;;;17.91;100.00;155965.16;4974038;28;20450;-84
2023/09/14 00:36:59;;;;;;;8.37;7.50;;;;;;;17.89;100.00;155958.66;4968053;28;20874;-84
2023/09/14 00:39:26;;;;;;;10.60;7.40;;;;;;;17.87;100.00;155954.72;4989042;28;20468;-83
2023/09/14 00:41:54;;;;;;;7.90;6.90;;;;;;;17.86;100.00;155950.84;4979844;28;20461;-83
2023/09/14 00:44:20;;;;;;;7.03;6.33;;;;;;;17.82;100.00;155941.72;4983895;28;20480;-84
2023/09/14 00:46:47;;;;;;;8.23;7.37;;;;;;;17.80;100.00;155936.53;4999151;28;20477;-84
2023/09/14 00:49:14;;;;;;;7.80;6.83;;;;;;;17.76;100.00;155926.13;4969356;28;20524;-84
2023/09/14 00:51:40;;;;;;;7.70;6.17;;;;;;;17.75;100.00;155923.50;4973802;28;20464;-83
2023/09/14 00:54:07;;;;;;;8.53;7.67;;;;;;;17.75;100.00;155923.50;4979585;28;20495;-85
2023/09/14 00:56:34;;;;;;;8.73;7.40;;;;;;;17.74;100.00;155920.88;4982078;28;20450;-83
2023/09/14 00:59:05;;;;;;;8.30;7.50;;;;;;;17.71;100.00;155911.81;4952155;28;20521;-82
2023/09/14 01:01:32;;;;;;;9.00;8.10;;;;;;;17.67;100.00;155902.69;4973490;28;20540;-85
2023/09/14 01:04:31;;;;;;;8.63;7.73;;;;;;;17.62;100.00;155889.66;4974974;28;20462;-83
2023/09/14 01:06:57;;;;;;;9.83;8.17;;;;;;;17.59;100.00;155881.84;4974299;28;20600;-84
2023/09/14 01:09:24;;;;;;;8.13;7.17;;;;;;;17.56;100.00;155874.03;4972919;28;20570;-83
2023/09/14 01:11:50;;;;;;;9.13;8.33;;;;;;;17.52;100.00;155863.59;4981034;28;20466;-83
2023/09/14 01:14:26;;;;;;;10.20;8.47;;;;;;;17.52;100.00;155864.91;4970700;28;20554;-84
2023/09/14 01:16:56;;;;;;;9.80;8.10;;;;;;;17.55;100.00;155871.47;4969832;28;20497;-84
2023/09/14 01:19:37;;;;;;;8.70;7.90;;;;;;;17.49;100.00;155857.09;4961502;28;20458;-83
2023/09/14 01:22:19;;;;;;;9.73;8.73;;;;;;;17.45;100.00;155845.34;4956798;28;20469;-83
2023/09/14 01:24:54;;;;;;;9.33;8.33;;;;;;;17.39;100.00;155831.06;4965195;28;20445;-83
2023/09/14 01:27:22;;;;;;;9.03;8.10;;;;;;;17.38;100.00;155827.13;4969969;28;20515;-83
2023/09/14 01:29:49;;;;;;;9.97;8.93;;;;;;;17.34;100.00;155816.72;4985448;28;20968;-83
2023/09/14 01:32:16;;;;;;;9.87;8.40;;;;;;;17.34;100.00;155818.00;4986198;28;20453;-83
2023/09/14 01:34:43;;;;;;;10.30;8.50;;;;;;;17.29;100.00;155803.72;4971608;28;20454;-83
2023/09/14 01:37:10;;;;;;;10.20;8.77;;;;;;;17.25;100.00;155793.28;4970900;28;20552;-83
2023/09/14 01:39:38;;;;;;;10.33;9.00;;;;;;;17.21;100.00;155782.91;4970249;28;20477;-83
2023/09/14 01:42:05;;;;;;;9.57;8.57;;;;;;;17.19;100.00;155777.66;4953036;28;20466;-83
2023/09/14 01:44:33;;;;;;;9.63;8.53;;;;;;;17.12;100.00;155759.47;4966724;28;21023;-83
2023/09/14 01:47:00;;;;;;;9.10;8.20;;;;;;;17.09;100.00;155751.63;4963847;28;20477;-84
2023/09/14 01:49:27;;;;;;;9.57;8.57;;;;;;;17.05;100.00;155743.81;4953830;28;20812;-83
2023/09/14 01:51:54;;;;;;;9.60;8.00;;;;;;;17.04;100.00;155739.94;4960662;28;20456;-84
2023/09/14 01:54:21;;;;;;;10.07;9.07;;;;;;;16.98;100.00;155724.31;4967053;28;20457;-83
2023/09/14 01:56:48;;;;;;;10.03;9.03;;;;;;;16.98;100.00;155725.63;4973983;28;20450;-84
2023/09/14 01:59:15;;;;;;;10.17;8.70;;;;;;;17.01;100.00;155733.44;4948503;28;20523;-83
2023/09/14 02:01:43;;;;;;;11.27;9.80;;;;;;;16.99;100.00;155726.94;4950105;28;20903;-84
2023/09/14 02:04:09;;;;;;;9.60;8.57;;;;;;;16.99;100.00;155726.94;4935169;28;20462;-83
2023/09/14 02:06:36;;;;;;;11.13;8.97;;;;;;;16.99;100.00;155728.25;4969578;28;20479;-84
2023/09/14 02:09:03;;;;;;;11.10;9.17;;;;;;;16.99;100.00;155726.94;4956636;28;20860;-83
2023/09/14 02:11:30;;;;;;;11.13;8.60;;;;;;;16.96;100.00;155720.44;4970163;28;20462;-84
2023/09/14 02:13:56;;;;;;;10.50;9.40;;;;;;;16.98;100.00;155725.63;4944991;28;20553;-83
2023/09/14 02:16:23;;;;;;;11.00;8.30;;;;;;;17.01;100.00;155733.44;4935724;28;20478;-83
2023/09/14 02:18:51;;;;;;;11.67;10.40;;;;;;;17.01;100.00;155732.13;4959670;28;20493;-83
2023/09/14 02:21:18;;;;;;;8.90;8.00;;;;;;;17.00;100.00;155729.50;4934415;29;20458;-83
2023/09/14 02:23:48;;;;;;;11.73;8.43;;;;;;;16.98;100.00;155725.63;4918848;28;20893;-84
2023/09/14 02:26:14;;;;;;;8.77;7.87;;;;;;;16.98;100.00;155724.31;4950672;28;21090;-84
2023/09/14 02:28:41;;;;;;;8.57;7.63;;;;;;;16.96;100.00;155719.13;4963726;28;20502;-84
2023/09/14 02:31:08;;;;;;;11.30;8.63;;;;;;;16.98;100.00;155724.31;4967124;28;20462;-83
2023/09/14 02:33:36;;;;;;;9.60;8.60;;;;;;;16.98;100.00;155725.63;4918716;29;20472;-84
2023/09/14 02:36:05;;;;;;;9.60;8.10;;;;;;;17.00;100.00;155729.50;4962528;28;20529;-83
2023/09/14 02:38:31;;;;;;;9.53;8.23;;;;;;;16.98;100.00;155725.63;4968611;28;20463;-84
2023/09/14 02:40:58;;;;;;;8.00;7.13;;;;;;;16.98;100.00;155725.63;4951620;28;20468;-83
2023/09/14 02:43:24;;;;;;;8.13;7.27;;;;;;;16.97;100.00;155723.00;4929192;29;20464;-83
2023/09/14 02:45:51;;;;;;;8.50;7.63;;;;;;;16.96;100.00;155719.13;4953019;28;20470;-84
2023/09/14 02:48:18;;;;;;;8.57;6.93;;;;;;;16.96;100.00;155720.44;4934354;28;20483;-84
2023/09/14 02:50:45;;;;;;;9.07;7.57;;;;;;;16.97;100.00;155723.00;4959901;28;20458;-83
2023/09/14 02:53:13;;;;;;;8.53;7.67;;;;;;;16.99;100.00;155728.25;4920443;29;20459;-83
2023/09/14 02:55:40;;;;;;;8.40;6.37;;;;;;;16.98;100.00;155724.31;4955273;28;20468;-83
2023/09/14 02:58:08;;;;;;;7.80;6.90;;;;;;;16.96;100.00;155720.44;4940327;28;20546;-83
2023/09/14 03:00:34;;;;;;;7.70;6.90;;;;;;;16.94;100.00;155715.19;4964145;28;20462;-83
2023/09/14 03:03:02;;;;;;;8.03;6.80;;;;;;;16.93;100.00;155711.31;4954859;28;20457;-83
2023/09/14 03:05:29;;;;;;;8.70;6.80;;;;;;;16.90;100.00;155703.50;4944890;29;20524;-83
2023/09/14 03:07:56;;;;;;;8.57;6.97;;;;;;;16.88;100.00;155699.63;4906334;29;20483;-83
2023/09/14 03:10:24;;;;;;;6.63;5.93;;;;;;;16.88;100.00;155699.63;4954281;28;20517;-84
2023/09/14 03:12:50;;;;;;;8.00;6.33;;;;;;;16.84;100.00;155689.19;4953539;28;20478;-83
2023/09/14 03:15:17;;;;;;;7.27;6.60;;;;;;;16.89;100.00;155702.19;4949639;28;20518;-84
2023/09/14 03:17:44;;;;;;;6.27;5.67;;;;;;;16.86;100.00;155694.41;4946850;29;20969;-83
2023/09/14 03:20:11;;;;;;;6.37;5.40;;;;;;;16.86;100.00;155694.41;4953577;28;20829;-82
2023/09/14 03:22:38;;;;;;;7.27;6.33;;;;;;;16.88;100.00;155698.31;4965629;28;20482;-84
2023/09/14 03:25:06;;;;;;;6.47;5.43;;;;;;;16.89;100.00;155702.19;4925705;28;20485;-83
2023/09/14 03:27:34;;;;;;;7.83;6.40;;;;;;;16.89;100.00;155702.19;4978429;28;20577;-84
2023/09/14 03:30:00;;;;;;;7.03;6.03;;;;;;;16.90;100.00;155704.81;4934511;28;20477;-84
2023/09/14 03:32:27;;;;;;;7.60;5.90;;;;;;;16.91;100.00;155707.44;4945268;29;20566;-82
2023/09/14 03:34:54;;;;;;;6.70;5.20;;;;;;;16.90;100.00;155704.81;4950108;28;20565;-82
2023/09/14 03:37:20;;;;;;;6.50;5.47;;;;;;;16.88;100.00;155699.63;4933414;28;20908;-83
2023/09/14 03:39:47;;;;;;;6.17;5.50;;;;;;;16.90;100.00;155704.81;4949033;29;20452;-82
2023/09/14 03:42:14;;;;;;;6.77;5.70;;;;;;;16.89;100.00;155702.19;4931333;29;20467;-82
2023/09/14 03:44:42;;;;;;;6.27;5.67;;;;;;;16.90;100.00;155704.81;4963477;28;20569;-82
2023/09/14 03:47:09;;;;;;;6.70;5.53;;;;;;;16.93;100.00;155711.31;4958265;28;20471;-82
2023/09/14 03:49:36;;;;;;;6.30;5.70;;;;;;;16.93;100.00;155712.63;4950173;28;20475;-83
2023/09/14 03:52:03;;;;;;;6.87;5.63;;;;;;;16.93;100.00;155712.63;4947697;28;20558;-82
2023/09/14 03:54:29;;;;;;;6.30;5.50;;;;;;;16.95;100.00;155716.50;4951863;28;20447;-81
2023/09/14 03:56:56;;;;;;;6.53;5.67;;;;;;;16.96;100.00;155720.44;4943700;29;20472;-82
2023/09/14 03:59:22;;;;;;;6.60;5.47;;;;;;;16.94;100.00;155713.94;4938541;28;20840;-83
2023/09/14 04:01:50;;;;;;;8.23;5.90;;;;;;;16.93;100.00;155712.63;4965638;28;20911;-82
2023/09/14 04:04:17;;;;;;;7.17;5.80;;;;;;;16.94;100.00;155715.19;4964470;28;20449;-82
2023/09/14 04:06:46;;;;;;;6.07;5.43;;;;;;;16.92;100.00;155708.69;4982156;28;20828;-82
2023/09/14 04:09:14;;;;;;;6.90;5.90;;;;;;;16.93;100.00;155712.63;4972248;28;20465;-82
2023/09/14 04:11:40;;;;;;;6.60;6.00;;;;;;;16.92;100.00;155710.00;4958764;28;20453;-83
2023/09/14 04:14:07;;;;;;;6.77;6.03;;;;;;;16.92;100.00;155708.69;4963696;28;20450;-82
2023/09/14 04:16:38;;;;;;;7.00;5.80;;;;;;;16.90;100.00;155703.50;4969931;28;20837;-81
2023/09/14 04:19:06;;;;;;;8.07;5.97;;;;;;;16.88;100.00;155699.63;4975387;28;20464;-81
2023/09/14 04:21:33;;;;;;;6.43;5.83;;;;;;;16.88;100.00;155698.31;4984035;28;20445;-81
2023/09/14 04:23:59;;;;;;;7.30;5.50;;;;;;;16.85;100.00;155691.81;4956371;28;20472;-81
2023/09/14 04:26:27;;;;;;;6.20;5.40;;;;;;;16.87;100.00;155695.69;4975678;28;20499;-81
2023/09/14 04:28:54;;;;;;;6.70;5.50;;;;;;;16.83;100.00;155686.59;4962971;28;20477;-81
2023/09/14 04:31:20;;;;;;;6.40;5.80;;;;;;;16.85;100.00;155691.81;4987937;28;20478;-82
2023/09/14 04:33:49;;;;;;;6.23;5.63;;;;;;;16.84;100.00;155689.19;4980232;28;20570;-81
2023/09/14 04:36:18;;;;;;;6.60;4.90;;;;;;;16.84;100.00;155687.88;4959804;28;20527;-81
2023/09/14 04:38:45;;;;;;;7.10;5.90;;;;;;;16.87;100.00;155695.69;4955897;28;20497;-81
2023/09/14 04:41:13;;;;;;;6.03;5.43;;;;;;;16.87;100.00;155697.00;4964641;28;20449;-81
2023/09/14 04:43:39;;;;;;;7.50;6.20;;;;;;;16.89;100.00;155700.94;4989312;28;20496;-81
2023/09/14 04:46:06;;;;;;;5.73;5.10;;;;;;;16.91;100.00;155707.44;4962614;28;20511;-81
2023/09/14 04:48:33;;;;;;;6.23;5.63;;;;;;;16.90;100.00;155704.81;4980371;28;20481;-81
2023/09/14 04:51:07;;;;;;;7.00;5.83;;;;;;;16.90;100.00;155703.50;4987551;28;20464;-81
2023/09/14 04:53:38;;;;;;;5.97;5.37;;;;;;;16.91;100.00;155706.13;4988387;28;20492;-81
2023/09/14 04:56:06;;;;;;;6.27;5.67;;;;;;;16.91;100.00;155707.44;4975340;28;20467;-81
2023/09/14 04:58:34;;;;;;;6.83;6.13;;;;;;;16.90;100.00;155704.81;4960297;28;20449;-81
2023/09/14 05:01:01;;;;;;;6.80;6.10;;;;;;;16.90;100.00;155704.81;4975332;28;20452;-81
2023/09/14 05:03:28;;;;;;;7.00;5.57;;;;;;;16.89;100.00;155702.19;4996797;28;20453;-82
2023/09/14 05:05:55;;;;;;;6.33;5.70;;;;;;;16.88;100.00;155699.63;4960600;28;20488;-82
2023/09/14 05:08:23;;;;;;;7.47;5.80;;;;;;;16.87;100.00;155695.69;4993524;28;20534;-82
2023/09/14 05:10:54;;;;;;;6.10;5.40;;;;;;;16.85;100.00;155691.81;4950753;28;20475;-82
2023/09/14 05:13:25;;;;;;;6.97;6.03;;;;;;;16.84;100.00;155687.88;4948149;28;20535;-82
2023/09/14 05:15:52;;;;;;;7.20;6.50;;;;;;;16.81;100.00;155681.38;4967833;28;20851;-82
2023/09/14 05:18:24;;;;;;;6.37;5.50;;;;;;;16.82;100.00;155684.00;4980316;28;20444;-81
2023/09/14 05:20:53;;;;;;;6.47;5.83;;;;;;;16.81;100.00;155681.38;4997149;28;21065;-82
2023/09/14 05:23:20;;;;;;;6.87;6.20;;;;;;;16.79;100.00;155676.19;4980966;28;20477;-81
2023/09/14 05:25:47;;;;;;;6.40;5.80;;;;;;;16.80;100.00;155678.78;4979425;28;21018;-81
2023/09/14 05:28:28;;;;;;;7.63;6.87;;;;;;;16.80;100.00;155678.78;4972487;28;20468;-82
2023/09/14 05:30:54;;;;;;;6.93;6.00;;;;;;;16.82;100.00;155682.69;4977613;28;20456;-81
2023/09/14 05:33:23;;;;;;;6.10;5.40;;;;;;;16.84;100.00;155689.19;4962983;28;20542;-81
2023/09/14 05:35:52;;;;;;;7.80;6.00;;;;;;;16.80;100.00;155678.78;4980723;28;20484;-80
2023/09/14 05:38:19;;;;;;;7.57;6.77;;;;;;;16.81;100.00;155680.09;4947728;28;20476;-80
2023/09/14 05:40:46;;;;;;;7.07;6.17;;;;;;;16.82;100.00;155684.00;4980366;28;20480;-80
2023/09/14 05:43:13;;;;;;;8.90;7.13;;;;;;;16.80;100.00;155678.78;4975243;28;20496;-81
2023/09/14 05:45:42;;;;;;;7.27;6.57;;;;;;;16.79;100.00;155676.19;4980214;28;20472;-79
2023/09/14 05:48:09;;;;;;;7.50;6.70;;;;;;;16.78;100.00;155673.59;4979635;28;20472;-80
2023/09/14 05:50:36;;;;;;;7.30;6.60;;;;;;;16.75;100.00;155665.78;4957632;28;20458;-81
2023/09/14 05:53:04;;;;;;;6.87;5.93;;;;;;;16.72;100.00;155656.66;4961843;28;20593;-80
2023/09/14 05:55:31;;;;;;;7.00;6.30;;;;;;;16.71;100.00;155654.03;4965355;28;20454;-80
2023/09/14 05:57:57;;;;;;;7.87;6.87;;;;;;;16.75;100.00;155665.78;4966299;28;20481;-81
2023/09/14 06:00:24;;;;;;;6.93;6.10;;;;;;;16.76;100.00;155667.09;4978224;28;20480;-81
2023/09/14 06:02:55;;;;;;;7.20;6.50;;;;;;;16.77;100.00;155670.97;4987421;28;20445;-81
2023/09/14 06:05:22;;;;;;;7.63;6.80;;;;;;;16.77;100.00;155670.97;4978318;28;20544;-80
2023/09/14 06:07:48;;;;;;;7.07;6.20;;;;;;;16.80;100.00;155677.47;4966066;28;20480;-81
2023/09/14 06:10:15;;;;;;;8.80;7.90;;;;;;;16.82;100.00;155682.69;4964087;28;20547;-80
2023/09/14 06:12:42;;;;;;;8.70;7.20;;;;;;;16.87;100.00;155695.69;4982294;28;21158;-81
2023/09/14 06:15:09;;;;;;;7.10;6.40;;;;;;;16.94;100.00;155715.19;4980491;28;20579;-81
2023/09/14 06:17:36;;;;;;;7.73;6.93;;;;;;;17.08;100.00;155749.06;4994597;28;20461;-80
2023/09/14 06:20:05;;;;;;;7.90;7.00;;;;;;;17.33;100.00;155815.44;4978738;28;20479;-81
2023/09/14 06:22:32;;;;;;;7.67;6.80;;;;;;;17.54;100.00;155868.84;4995588;28;20536;-80
2023/09/14 06:24:58;;;;;;;9.20;7.03;;;;;;;17.69;100.00;155906.56;4977581;28;20464;-80
2023/09/14 06:27:25;;;;;;;10.50;8.83;;;;;;;17.77;100.00;155928.69;4978606;28;20462;-80
2023/09/14 06:29:54;;;;;;;10.20;8.37;;;;;;;17.89;100.00;155959.97;4979698;28;20485;-80
2023/09/14 06:32:21;;;;;;;9.93;8.13;;;;;;;17.90;100.00;155962.56;4996116;28;20808;-80
2023/09/14 06:34:48;;;;;;;9.67;8.20;;;;;;;17.96;100.00;155978.19;4997576;28;20471;-80
2023/09/14 06:37:16;;;;;;;10.80;8.20;;;;;;;18.06;100.00;156004.22;4993155;28;20537;-81
2023/09/14 06:39:48;;;;;;;10.13;8.60;;;;;;;18.14;100.00;156023.75;4978182;28;20540;-80
2023/09/14 06:42:15;;;;;;;9.00;8.10;;;;;;;18.10;100.00;156014.66;4978508;28;21212;-79
2023/09/14 06:44:41;;;;;;;10.43;7.80;;;;;;;18.02;100.00;155992.53;4983299;28;20481;-81
2023/09/14 06:47:08;;;;;;;8.20;7.40;;;;;;;17.88;100.00;155957.34;4974534;28;20452;-80
2023/09/14 06:49:35;;;;;;;10.50;9.40;;;;;;;17.77;100.00;155927.38;4976359;28;20556;-80
2023/09/14 06:52:02;;;;;;;10.70;9.60;;;;;;;17.67;100.00;155902.69;4992135;28;20456;-80
2023/09/14 06:54:32;;;;;;;9.90;8.60;;;;;;;17.61;100.00;155887.03;4996447;28;20507;-80
2023/09/14 06:56:59;;;;;;;12.03;9.00;;;;;;;17.64;100.00;155894.84;4962581;28;20452;-79
2023/09/14 06:59:25;;;;;;;9.57;8.60;;;;;;;17.63;100.00;155892.28;4995124;28;20551;-81
2023/09/14 07:01:52;;;;;;;9.80;8.57;;;;;;;17.60;100.00;155884.47;4973943;28;20448;-80
2023/09/14 07:04:19;;;;;;;9.30;7.70;;;;;;;17.47;100.00;155851.84;4963698;28;20929;-80
2023/09/14 07:06:46;;;;;;;10.13;8.67;;;;;;;17.49;100.00;155855.78;4963021;28;20784;-80
2023/09/14 07:09:13;;;;;;;9.40;8.40;;;;;;;17.45;100.00;155845.34;4963493;28;20480;-86
2023/09/14 07:11:41;;;;;;;8.90;8.00;;;;;;;17.40;100.00;155833.63;4989977;28;20861;-80
2023/09/14 07:14:08;;;;;;;10.10;7.93;;;;;;;17.37;100.00;155824.50;4978530;28;21046;-80
2023/09/14 07:16:34;;;;;;;10.10;8.20;;;;;;;17.28;100.00;155801.09;4984875;28;20457;-80
2023/09/14 07:19:02;;;;;;;9.67;8.00;;;;;;;17.25;100.00;155793.28;4978026;28;21265;-80
2023/09/14 07:21:32;;;;;;;9.83;7.70;;;;;;;17.16;100.00;155771.16;4959428;28;20909;-80
2023/09/14 07:23:59;;;;;;;8.50;7.57;;;;;;;17.24;100.00;155791.97;4988588;28;20449;-80
2023/09/14 07:26:26;;;;;;;9.83;8.40;;;;;;;17.30;100.00;155806.28;4971538;28;21058;-80
2023/09/14 07:28:54;;;;;;;11.00;8.33;;;;;;;17.28;100.00;155802.41;4985142;28;20783;-80
2023/09/14 07:31:21;;;;;;;10.27;8.20;;;;;;;17.24;100.00;155790.66;4988040;28;20460;-79
2023/09/14 07:33:48;;;;;;;9.60;8.10;;;;;;;17.18;100.00;155776.41;4946628;28;20968;-79
2023/09/14 07:36:14;;;;;;;11.60;8.50;;;;;;;17.14;100.00;155765.97;4962438;28;20769;-79
2023/09/14 07:38:41;;;;;;;10.13;7.67;;;;;;;17.15;100.00;155767.28;4972191;28;20489;-80
2023/09/14 07:41:07;;;;;;;9.67;8.60;;;;;;;17.11;100.00;155756.84;4964816;28;20983;-80
2023/09/14 07:43:34;;;;;;;12.80;9.40;;;;;;;17.12;100.00;155759.47;4991510;28;20457;-79
2023/09/14 07:46:12;;;;;;;15.50;9.10;;;;;;;17.08;100.00;155750.34;4994410;28;20459;-80
2023/09/14 07:48:41;;;;;;;10.20;9.17;;;;;;;17.05;100.00;155743.81;4963918;28;20472;-79
2023/09/14 07:51:08;;;;;;;10.17;7.93;;;;;;;17.11;100.00;155756.84;4975712;28;20447;-78
2023/09/14 07:53:34;;;;;;;10.97;8.20;;;;;;;17.11;100.00;155756.84;4964460;28;20773;-79
2023/09/14 07:56:01;;;;;;;8.80;7.90;;;;;;;17.03;100.00;155738.63;4962040;28;20457;-79
2023/09/14 07:58:27;;;;;;;10.10;8.47;;;;;;;17.04;100.00;155741.25;4980306;28;20448;-80
2023/09/14 08:00:54;;;;;;;9.33;8.20;;;;;;;17.11;100.00;155756.84;4969369;28;20492;-80
2023/09/14 08:03:23;;;;;;;11.07;9.83;;;;;;;17.15;100.00;155767.28;4942765;28;21051;-80
2023/09/14 08:05:51;;;;;;;10.70;9.40;;;;;;;17.27;100.00;155798.47;4976079;28;20841;-80
2023/09/14 08:08:17;;;;;;;10.40;8.90;;;;;;;17.24;100.00;155791.97;4972519;28;20553;-80
2023/09/14 08:10:49;;;;;;;10.20;8.97;;;;;;;17.25;100.00;155793.28;4968637;28;20466;-80
2023/09/14 08:13:16;;;;;;;11.17;8.60;;;;;;;17.26;100.00;155797.16;4979605;28;20530;-81
2023/09/14 08:15:42;;;;;;;9.40;7.73;;;;;;;17.22;100.00;155785.47;4955545;28;21155;-80
2023/09/14 08:18:09;;;;;;;8.87;7.77;;;;;;;17.30;100.00;155806.28;4973313;28;21027;-80
2023/09/14 08:20:38;;;;;;;9.90;8.10;;;;;;;17.41;100.00;155834.94;4972880;28;20461;-81
2023/09/14 08:23:05;;;;;;;12.00;8.80;;;;;;;17.31;100.00;155808.91;4975282;28;20446;-80
2023/09/14 08:25:32;;;;;;;11.00;8.70;;;;;;;17.30;100.00;155806.28;4965130;28;20453;-80
2023/09/14 08:27:58;;;;;;;10.60;8.93;;;;;;;17.31;100.00;155808.91;4973737;28;20465;-80
2023/09/14 08:30:25;;;;;;;10.97;8.07;;;;;;;17.31;100.00;155808.91;4974897;28;20490;-80
2023/09/14 08:32:52;;;;;;;10.40;7.90;;;;;;;17.38;100.00;155827.13;4976698;28;20481;-80
2023/09/14 08:35:23;;;;;;;11.23;8.80;;;;;;;17.37;100.00;155824.50;4971117;28;20963;-80
2023/09/14 08:37:52;;;;;;;9.90;8.33;;;;;;;17.45;100.00;155845.34;4962701;28;20578;-81
2023/09/14 08:40:19;;;;;;;10.40;8.97;;;;;;;17.53;100.00;155866.22;4960756;28;20450;-81
2023/09/14 08:43:31;;;;;;;11.67;9.57;;;;;;;17.46;100.00;155847.94;4970946;28;20565;-81
2023/09/14 08:45:59;;;;;;;13.00;9.63;;;;;;;17.45;100.00;155845.34;4950548;28;20493;-80
2023/09/14 08:48:27;;;;;;;10.50;9.40;;;;;;;17.39;100.00;155829.75;4972687;28;20457;-80
2023/09/14 08:50:55;;;;;;;11.40;9.70;;;;;;;17.35;100.00;155819.31;4958330;28;20545;-81
2023/09/14 08:53:23;;;;;;;10.40;8.90;;;;;;;17.32;100.00;155812.81;4972462;28;20456;-81
2023/09/14 08:55:51;;;;;;;9.60;8.60;;;;;;;17.35;100.00;155819.31;4972339;28;20816;-80
2023/09/14 08:58:19;;;;;;;10.60;9.07;;;;;;;17.56;100.00;155875.34;4960774;28;20509;-81
2023/09/14 09:00:47;;;;;;;10.40;9.00;;;;;;;17.59;100.00;155881.84;4993528;28;21302;-81
2023/09/14 09:03:13;;;;;;;10.00;8.73;;;;;;;17.62;100.00;155889.66;4995460;28;20453;-81
2023/09/14 09:05:42;;;;;;;10.83;9.80;;;;;;;17.52;100.00;155863.59;4977385;28;20460;-79
2023/09/14 09:08:09;;;;;;;10.33;9.20;;;;;;;17.62;100.00;155889.66;4977816;28;20466;-79
2023/09/14 09:10:40;;;;;;;10.00;8.97;;;;;;;17.59;100.00;155881.84;4977605;28;20638;-80
2023/09/14 09:13:09;;;;;;;9.70;8.70;;;;;;;17.64;100.00;155896.16;4979812;28;20958;-80
2023/09/14 09:15:38;;;;;;;9.47;8.57;;;;;;;17.62;100.00;155890.97;4976487;28;20481;-80
2023/09/14 09:18:06;;;;;;;10.20;9.10;;;;;;;17.55;100.00;155871.47;4972322;28;20452;-80
2023/09/14 09:20:33;;;;;;;10.50;8.40;;;;;;;17.56;100.00;155874.03;4960155;28;20795;-80
2023/09/14 09:23:01;;;;;;;11.97;9.10;;;;;;;17.64;100.00;155896.16;4977551;28;20663;-79
2023/09/14 09:25:29;;;;;;;10.40;8.40;;;;;;;17.70;100.00;155909.19;4995124;28;20899;-80
2023/09/14 09:27:59;;;;;;;9.93;8.20;;;;;;;17.70;100.00;155910.50;4972945;28;20998;-80
2023/09/14 09:30:30;;;;;;;11.00;9.67;;;;;;;17.78;100.00;155930.00;4978695;28;20947;-79
2023/09/14 09:32:57;;;;;;;9.70;8.67;;;;;;;17.78;99.94;155931.31;4976020;28;20460;-80
2023/09/14 09:35:24;;;;;;;9.20;7.93;;;;;;;17.82;99.54;155941.72;4982143;28;21001;-79
2023/09/14 09:37:52;;;;;;;9.17;7.30;;;;;;;17.87;99.81;155953.47;4995302;28;20454;-80
2023/09/14 09:40:20;;;;;;;10.37;8.97;;;;;;;17.89;99.34;155959.97;5000135;28;20452;-79
2023/09/14 09:42:47;;;;;;;11.03;9.70;;;;;;;17.90;98.18;155962.56;4961568;28;20480;-79
2023/09/14 09:45:16;;;;;;;10.00;9.00;;;;;;;17.91;97.57;155965.16;4993389;28;20464;-79
2023/09/14 09:47:45;;;;;;;9.03;8.13;;;;;;;17.89;97.76;155959.97;4980530;28;20461;-81
2023/09/14 09:50:13;;;;;;;8.40;7.50;;;;;;;17.96;98.36;155978.19;4976144;28;20539;-77
2023/09/14 09:52:41;;;;;;;10.47;8.67;;;;;;;18.05;97.83;156000.34;4994454;28;20460;-78
2023/09/14 09:55:10;;;;;;;8.47;7.37;;;;;;;18.07;98.14;156005.53;4978563;28;20457;-78
2023/09/14 09:57:37;;;;;;;9.40;8.47;;;;;;;18.09;97.56;156012.03;4969045;28;20456;-78
2023/09/14 10:00:12;;;;;;;8.93;8.03;;;;;;;18.18;97.22;156035.50;4963204;28;21075;-77
2023/09/14 10:02:40;;;;;;;10.33;7.40;;;;;;;18.27;96.87;156058.91;4953245;28;20643;-77
2023/09/14 10:05:08;;;;;;;8.50;6.60;;;;;;;18.34;95.70;156074.56;4970017;28;20562;-78
2023/09/14 10:07:39;;;;;;;11.73;7.90;;;;;;;18.37;95.51;156083.69;4952035;28;20462;-77
2023/09/14 10:10:08;;;;;;;8.43;7.53;;;;;;;18.49;95.62;156113.66;4952500;28;20994;-78
2023/09/14 10:12:38;;;;;;;8.80;7.80;;;;;;;18.53;94.34;156124.13;4955757;28;20840;-78
2023/09/14 10:15:06;;;;;;;9.47;8.47;;;;;;;18.49;93.67;156113.66;4956276;28;20988;-78
2023/09/14 10:17:33;;;;;;;8.87;7.97;;;;;;;18.40;93.93;156090.22;4958147;28;20457;-78
2023/09/14 10:20:05;;;;;;;9.30;8.40;;;;;;;18.32;94.66;156069.38;4956317;28;20553;-77
2023/09/14 10:22:32;;;;;;;9.50;8.07;;;;;;;18.44;94.63;156100.59;4951307;28;20509;-77
2023/09/14 10:24:59;;;;;;;9.20;7.73;;;;;;;18.57;93.68;156134.53;4958040;28;20468;-77
2023/09/14 10:27:28;;;;;;;7.80;6.90;;;;;;;18.61;93.15;156144.97;4955798;28;20855;-77
2023/09/14 10:29:56;;;;;;;9.30;7.87;;;;;;;18.61;92.68;156144.97;4970291;28;20489;-77
2023/09/14 10:32:23;;;;;;;9.20;8.30;;;;;;;18.62;92.58;156148.84;4971393;28;20570;-78
2023/09/14 10:34:51;;;;;;;8.37;7.37;;;;;;;18.65;92.35;156155.38;4961492;28;20779;-77
2023/09/14 10:37:20;;;;;;;8.40;7.60;;;;;;;18.63;92.74;156151.47;4951039;28;20833;-77
2023/09/14 10:39:47;;;;;;;8.53;7.67;;;;;;;18.59;92.08;156139.72;4958655;28;20467;-76
2023/09/14 10:42:13;;;;;;;9.23;7.70;;;;;;;18.53;92.86;156124.13;4954865;28;20840;-76
2023/09/14 10:44:41;;;;;;;9.80;8.80;;;;;;;18.64;92.39;156152.75;4957546;28;20467;-77
2023/09/14 10:47:08;;;;;;;8.03;7.23;;;;;;;18.68;92.54;156163.19;4955441;28;20450;-76
2023/09/14 10:49:36;;;;;;;9.37;7.83;;;;;;;18.83;92.17;156202.25;4959359;28;20514;-76
2023/09/14 10:52:04;;;;;;;8.80;7.90;;;;;;;18.90;91.46;156219.22;4924509;28;20932;-76
2023/09/14 10:54:33;;;;;;;9.57;8.60;;;;;;;18.97;90.81;156238.75;4957606;28;20481;-76
2023/09/14 10:57:00;;;;;;;8.87;8.07;;;;;;;19.07;90.72;156264.81;4930669;28;20447;-77
2023/09/14 10:59:50;;;;;;;8.77;7.97;;;;;;;19.18;89.15;156293.50;4977739;28;20485;-77
2023/09/14 11:02:54;;;;;;;9.03;8.13;;;;;;;19.19;88.66;156296.13;4968358;28;20487;-78
2023/09/14 11:05:25;;;;;;;7.27;6.53;;;;;;;19.23;88.44;156306.53;4994526;28;20469;-77
2023/09/14 11:07:58;;;;;;;8.60;7.60;;;;;;;19.29;87.93;156322.16;4960821;28;20497;-78
2023/09/14 11:10:27;;;;;;;7.33;6.57;;;;;;;19.36;87.72;156340.41;4991359;28;20477;-77
2023/09/14 11:13:24;;;;;;;11.33;7.43;;;;;;;19.33;85.87;156332.56;4965775;28;20556;-77
2023/09/14 11:15:55;;;;;;;7.43;6.70;;;;;;;19.25;86.12;156310.41;4998472;28;20519;-77
2023/09/14 11:18:33;;;;;;;9.97;6.73;;;;;;;19.21;85.21;156300.00;4995822;28;20476;-78
2023/09/14 11:21:00;;;;;;;9.07;7.67;;;;;;;19.21;85.62;156300.00;4968901;28;20456;-78